createdAt,value
2018-02-22T00:00:36.734Z,1.70
2018-02-22T00:03:04.870Z,2.20
2018-02-22T00:05:33.795Z,1.60
2018-02-22T00:08:01.926Z,2.10
2018-02-22T00:10:30.874Z,2.30
2018-02-22T00:12:59.013Z,2.10
2018-02-22T00:15:27.234Z,1.90
2018-02-22T00:17:55.365Z,1.90
2018-02-22T00:20:23.602Z,1.80
2018-02-22T00:22:51.747Z,2.00
2018-02-22T00:25:19.919Z,2.00
2018-02-22T00:27:48.058Z,1.80
2018-02-22T00:30:16.193Z,1.90
2018-02-22T00:32:44.359Z,1.60
2018-02-22T00:35:12.495Z,2.10
2018-02-22T00:37:40.650Z,2.00
2018-02-22T00:40:08.806Z,2.00
2018-02-22T00:42:37.822Z,2.00
2018-02-22T00:45:06.000Z,2.00
2018-02-22T00:47:34.138Z,1.90
2018-02-22T00:50:03.068Z,1.90
2018-02-22T00:52:31.201Z,1.80
2018-02-22T00:55:00.131Z,1.90
2018-02-22T00:57:28.272Z,1.80
2018-02-22T00:59:57.090Z,1.60
2018-02-22T01:02:25.259Z,1.90
2018-02-22T01:04:53.402Z,1.90
2018-02-22T01:07:22.430Z,1.70
2018-02-22T01:09:50.917Z,2.10
2018-02-22T01:12:19.083Z,1.80
2018-02-22T01:14:47.250Z,1.50
2018-02-22T01:17:15.410Z,2.00
2018-02-22T01:19:43.546Z,1.80
2018-02-22T01:22:11.766Z,2.10
2018-02-22T01:24:40.050Z,2.40
2018-02-22T01:27:08.221Z,1.90
2018-02-22T01:29:36.514Z,2.50
2018-02-22T01:32:04.766Z,2.50
2018-02-22T01:34:32.907Z,2.60
2018-02-22T01:37:01.861Z,2.10
2018-02-22T01:39:29.991Z,2.30
2018-02-22T01:41:58.141Z,2.50
2018-02-22T01:44:27.070Z,2.50
2018-02-22T01:46:55.237Z,2.90
2018-02-22T01:49:23.398Z,2.70
2018-02-22T01:51:51.542Z,2.60
2018-02-22T01:54:20.462Z,2.80
2018-02-22T01:56:48.599Z,2.80
2018-02-22T01:59:17.526Z,3.20
2018-02-22T02:01:45.694Z,3.00
2018-02-22T02:04:13.826Z,2.70
2018-02-22T02:06:41.970Z,2.90
2018-02-22T02:09:10.139Z,3.20
2018-02-22T02:11:38.273Z,2.60
2018-02-22T02:14:06.473Z,2.70
2018-02-22T02:16:34.623Z,2.70
2018-02-22T02:19:02.786Z,2.60
2018-02-22T02:21:31.817Z,2.90
2018-02-22T02:23:59.960Z,3.20
2018-02-22T02:26:28.110Z,2.80
2018-02-22T02:28:57.048Z,2.40
2018-02-22T02:31:25.205Z,2.40
2018-02-22T02:33:53.333Z,2.70
2018-02-22T02:36:21.474Z,3.00
2018-02-22T02:38:49.643Z,3.10
2018-02-22T02:41:17.804Z,3.00
2018-02-22T02:43:45.982Z,2.70
2018-02-22T02:46:14.122Z,3.10
2018-02-22T02:48:43.051Z,2.80
2018-02-22T02:51:11.183Z,2.90
2018-02-22T02:53:39.388Z,3.20
2018-02-22T02:56:07.543Z,2.90
2018-02-22T02:58:35.738Z,3.10
2018-02-22T03:01:03.904Z,3.40
2018-02-22T03:03:32.042Z,3.00
2018-02-22T03:06:00.969Z,3.10
2018-02-22T03:08:29.115Z,3.10
2018-02-22T03:10:57.723Z,2.90
2018-02-22T03:13:25.898Z,3.30
2018-02-22T03:15:54.074Z,2.90
2018-02-22T03:18:22.216Z,3.10
2018-02-22T03:20:50.369Z,3.20
2018-02-22T03:23:19.269Z,3.20
2018-02-22T03:25:48.205Z,3.40
2018-02-22T03:28:16.763Z,3.20
2018-02-22T03:30:44.903Z,3.30
2018-02-22T03:33:13.938Z,3.10
2018-02-22T03:35:42.070Z,2.80
2018-02-22T03:38:10.233Z,2.80
2018-02-22T03:40:38.390Z,2.50
2018-02-22T03:43:06.527Z,2.50
2018-02-22T03:45:34.701Z,2.30
2018-02-22T03:48:02.878Z,2.30
2018-02-22T03:50:31.026Z,2.00
2018-02-22T03:52:59.191Z,2.10
2018-02-22T03:55:28.578Z,2.10
2018-02-22T03:57:57.492Z,2.00
2018-02-22T04:00:25.631Z,2.00
2018-02-22T04:02:53.802Z,1.70
2018-02-22T04:05:21.966Z,1.50
2018-02-22T04:07:50.099Z,1.50
2018-02-22T04:10:18.259Z,1.60
2018-02-22T04:12:46.454Z,1.30
2018-02-22T04:15:14.606Z,1.10
2018-02-22T04:17:42.765Z,1.20
2018-02-22T04:20:11.674Z,1.10
2018-02-22T04:22:39.804Z,1.00
2018-02-22T04:25:07.965Z,1.00
2018-02-22T04:27:36.142Z,1.10
2018-02-22T04:30:04.277Z,1.20
2018-02-22T04:32:32.417Z,1.10
2018-02-22T04:35:01.200Z,1.10
2018-02-22T04:37:30.122Z,1.20
2018-02-22T04:39:58.298Z,1.10
2018-02-22T04:42:26.482Z,0.80
2018-02-22T04:44:54.623Z,1.30
2018-02-22T04:47:22.757Z,1.40
2018-02-22T04:49:50.994Z,1.60
2018-02-22T04:52:19.162Z,1.40
2018-02-22T04:54:47.322Z,1.20
2018-02-22T04:57:15.455Z,1.20
2018-02-22T04:59:44.457Z,0.90
2018-02-22T05:02:13.371Z,0.70
2018-02-22T05:04:41.534Z,0.70
2018-02-22T05:07:09.669Z,1.10
2018-02-22T05:09:37.826Z,0.90
2018-02-22T05:12:06.082Z,0.90
2018-02-22T05:14:34.228Z,0.60
2018-02-22T05:17:03.143Z,0.70
2018-02-22T05:19:31.287Z,0.80
2018-02-22T05:21:59.445Z,0.80
2018-02-22T05:24:28.373Z,0.70
2018-02-22T05:26:56.560Z,0.60
2018-02-22T05:29:24.741Z,0.30
2018-02-22T05:31:53.000Z,0.00
2018-02-22T05:34:21.230Z,0.10
2018-02-22T05:36:49.433Z,-0.30
2018-02-22T05:39:17.603Z,-0.10
2018-02-22T05:41:45.794Z,-0.10
2018-02-22T05:44:13.960Z,-0.20
2018-02-22T05:46:42.102Z,-0.10
2018-02-22T05:49:11.045Z,0.10
2018-02-22T05:51:39.186Z,0.00
2018-02-22T05:54:07.326Z,0.20
2018-02-22T05:56:36.625Z,0.20
2018-02-22T05:59:05.550Z,0.00
2018-02-22T06:01:33.693Z,0.00
2018-02-22T06:04:02.631Z,-0.10
2018-02-22T06:06:30.794Z,-0.20
2018-02-22T06:08:58.964Z,-0.30
2018-02-22T06:11:27.135Z,-0.10
2018-02-22T06:13:55.282Z,0.30
2018-02-22T06:16:24.224Z,0.20
2018-02-22T06:18:52.403Z,0.30
2018-02-22T06:21:20.542Z,0.50
2018-02-22T06:23:48.695Z,0.10
2018-02-22T06:26:16.856Z,0.20
2018-02-22T06:28:45.902Z,0.40
2018-02-22T06:31:14.048Z,0.30
2018-02-22T06:33:42.211Z,0.50
2018-02-22T06:36:10.361Z,0.50
2018-02-22T06:38:39.622Z,0.60
2018-02-22T06:41:07.786Z,0.30
2018-02-22T06:43:35.941Z,0.10
2018-02-22T06:46:04.097Z,0.10
2018-02-22T06:48:32.246Z,0.30
2018-02-22T06:51:00.467Z,0.30
2018-02-22T06:53:28.598Z,0.60
2018-02-22T06:55:57.502Z,0.70
2018-02-22T06:58:25.668Z,0.70
2018-02-22T07:00:54.593Z,0.30
2018-02-22T07:03:22.771Z,0.70
2018-02-22T07:05:50.936Z,0.30
2018-02-22T07:08:19.069Z,0.80
2018-02-22T07:10:47.985Z,0.60
2018-02-22T07:13:16.146Z,0.60
2018-02-22T07:15:45.888Z,0.70
2018-02-22T07:18:14.018Z,0.20
2018-02-22T07:20:42.943Z,0.30
2018-02-22T07:23:16.888Z,0.30
2018-02-22T07:25:39.275Z,0.50
2018-02-22T07:28:07.416Z,0.20
2018-02-22T07:30:36.314Z,0.50
2018-02-22T07:33:05.239Z,0.80
2018-02-22T07:35:34.073Z,0.90
2018-02-22T07:38:02.252Z,0.80
2018-02-22T07:40:30.387Z,0.70
2018-02-22T07:42:58.555Z,1.20
2018-02-22T07:45:26.734Z,1.30
2018-02-22T07:47:55.585Z,1.30
2018-02-22T07:50:24.491Z,1.30
2018-02-22T07:52:52.682Z,1.20
2018-02-22T07:55:20.826Z,1.60
2018-02-22T07:57:48.963Z,1.90
2018-02-22T08:00:17.139Z,2.00
2018-02-22T08:02:45.274Z,2.00
2018-02-22T08:05:13.411Z,1.80
2018-02-22T08:07:41.570Z,2.10
2018-02-22T08:10:10.496Z,2.30
2018-02-22T08:12:38.674Z,2.40
2018-02-22T08:15:06.851Z,2.60
2018-02-22T08:17:35.567Z,2.80
2018-02-22T08:20:03.721Z,3.00
2018-02-22T08:22:31.891Z,2.50
2018-02-22T08:25:00.058Z,2.40
2018-02-22T08:27:28.333Z,2.50
2018-02-22T08:29:56.466Z,3.00
2018-02-22T08:32:25.401Z,2.60
2018-02-22T08:34:53.873Z,2.90
2018-02-22T08:37:22.009Z,2.80
2018-02-22T08:39:50.945Z,3.10
2018-02-22T08:42:19.102Z,3.60
2018-02-22T08:44:47.239Z,3.40
2018-02-22T08:47:16.174Z,3.80
2018-02-22T08:49:44.305Z,3.50
2018-02-22T08:52:13.235Z,3.90
2018-02-22T08:54:41.655Z,3.90
2018-02-22T08:57:09.792Z,3.90
2018-02-22T08:59:37.974Z,4.30
2018-02-22T09:02:06.171Z,4.50
2018-02-22T09:04:34.337Z,4.10
2018-02-22T09:07:02.486Z,4.50
2018-02-22T09:09:31.159Z,4.70
2018-02-22T09:11:59.294Z,4.20
2018-02-22T09:14:28.618Z,4.70
2018-02-22T09:16:56.754Z,4.90
2018-02-22T09:19:25.788Z,5.30
2018-02-22T09:21:54.046Z,5.20
2018-02-22T09:24:22.186Z,5.60
2018-02-22T09:26:50.354Z,5.60
2018-02-22T09:29:18.486Z,5.70
2018-02-22T09:31:46.662Z,6.30
2018-02-22T09:34:14.801Z,6.40
2018-02-22T09:36:43.707Z,6.30
2018-02-22T09:39:11.884Z,6.70
2018-02-22T09:41:40.074Z,6.80
2018-02-22T09:44:08.255Z,7.20
2018-02-22T09:46:36.467Z,7.00
2018-02-22T09:49:05.371Z,7.30
2018-02-22T09:51:33.530Z,7.20
2018-02-22T09:54:02.446Z,6.80
2018-02-22T09:56:30.619Z,7.10
2018-02-22T09:58:58.770Z,7.60
2018-02-22T10:01:27.699Z,7.70
2018-02-22T10:03:55.868Z,7.50
2018-02-22T10:06:24.045Z,8.20
2018-02-22T10:08:52.223Z,8.60
2018-02-22T10:11:20.457Z,8.20
2018-02-22T10:13:49.360Z,8.20
2018-02-22T10:16:17.555Z,8.30
2018-02-22T10:18:45.765Z,8.60
2018-02-22T10:21:13.898Z,9.20
2018-02-22T10:23:42.090Z,9.70
2018-02-22T10:26:10.238Z,9.30
2018-02-22T10:28:38.454Z,9.10
2018-02-22T10:31:06.600Z,9.80
2018-02-22T10:33:34.738Z,9.90
2018-02-22T10:36:02.922Z,10.40
2018-02-22T10:38:31.118Z,10.20
2018-02-22T10:40:59.878Z,10.20
2018-02-22T10:43:28.046Z,10.60
2018-02-22T10:45:56.409Z,11.40
2018-02-22T10:48:25.387Z,11.40
2018-02-22T10:50:54.047Z,11.20
2018-02-22T10:53:22.213Z,11.50
2018-02-22T10:55:50.362Z,11.30
2018-02-22T10:58:18.544Z,10.70
2018-02-22T11:00:52.149Z,10.80
2018-02-22T11:03:20.319Z,11.60
2018-02-22T11:05:48.492Z,12.30
2018-02-22T11:08:16.641Z,12.70
2018-02-22T11:10:44.875Z,12.70
2018-02-22T11:13:13.017Z,12.50
2018-02-22T11:15:41.211Z,11.60
2018-02-22T11:18:09.383Z,10.70
2018-02-22T11:20:37.538Z,10.70
2018-02-22T11:23:05.714Z,11.00
2018-02-22T11:25:33.858Z,11.10
2018-02-22T11:28:02.053Z,11.20
2018-02-22T11:30:30.223Z,11.40
2018-02-22T11:32:58.978Z,11.30
2018-02-22T11:35:27.141Z,11.00
2018-02-22T11:37:56.050Z,11.50
2018-02-22T11:40:24.214Z,12.50
2018-02-22T11:42:52.389Z,12.60
2018-02-22T11:45:20.535Z,12.50
2018-02-22T11:47:48.706Z,12.10
2018-02-22T11:50:17.623Z,12.80
2018-02-22T11:52:46.487Z,13.00
2018-02-22T11:55:14.649Z,12.90
2018-02-22T11:57:42.786Z,12.90
2018-02-22T12:00:10.962Z,13.50
2018-02-22T12:02:39.101Z,13.20
2018-02-22T12:05:07.858Z,13.70
2018-02-22T12:07:36.018Z,14.60
2018-02-22T12:10:04.155Z,15.80
2018-02-22T12:12:32.325Z,15.20
2018-02-22T12:15:00.467Z,15.40
2018-02-22T12:17:29.365Z,16.00
2018-02-22T12:19:57.541Z,17.50
2018-02-22T12:22:25.687Z,18.90
2018-02-22T12:24:54.595Z,20.90
2018-02-22T12:27:24.295Z,19.90
2018-02-22T12:29:53.194Z,17.50
2018-02-22T12:32:22.098Z,16.50
2018-02-22T12:34:50.269Z,15.80
2018-02-22T12:37:18.408Z,15.50
2018-02-22T12:39:46.567Z,14.80
2018-02-22T12:42:14.711Z,14.10
2018-02-22T12:44:43.239Z,13.90
2018-02-22T12:47:11.382Z,13.20
2018-02-22T12:49:39.546Z,14.50
2018-02-22T12:52:07.721Z,14.90
2018-02-22T12:54:35.865Z,14.50
2018-02-22T12:57:04.256Z,16.10
2018-02-22T12:59:32.422Z,15.00
2018-02-22T13:02:00.605Z,14.30
2018-02-22T13:04:28.799Z,14.20
2018-02-22T13:06:56.940Z,14.70
2018-02-22T13:09:25.110Z,14.50
2018-02-22T13:11:53.250Z,14.00
2018-02-22T13:14:22.729Z,13.70
2018-02-22T13:16:50.850Z,14.00
2018-02-22T13:19:19.022Z,13.30
2018-02-22T13:21:47.417Z,13.80
2018-02-22T13:24:15.553Z,13.80
2018-02-22T13:26:44.472Z,14.00
2018-02-22T13:29:12.668Z,13.30
2018-02-22T13:31:40.829Z,14.10
2018-02-22T13:34:31.667Z,14.10
2018-02-22T13:36:59.909Z,15.90
2018-02-22T13:39:28.158Z,16.70
2018-02-22T13:41:56.323Z,18.30
2018-02-22T13:44:43.226Z,18.80
2018-02-22T13:47:12.145Z,18.90
2018-02-22T13:49:58.274Z,18.10
2018-02-22T13:52:26.470Z,17.30
2018-02-22T13:54:54.571Z,17.30
2018-02-22T13:57:22.772Z,16.60
2018-02-22T13:59:50.914Z,16.70
2018-02-22T14:02:26.805Z,19.80
2018-02-22T14:04:54.940Z,24.90
2018-02-22T14:07:23.078Z,27.80
2018-02-22T14:09:51.377Z,27.90
2018-02-22T14:12:20.278Z,26.40
2018-02-22T14:14:48.487Z,24.30
2018-02-22T14:17:16.689Z,23.40
2018-02-22T14:19:44.826Z,25.40
2018-02-22T14:22:12.961Z,26.00
2018-02-22T14:24:41.910Z,25.00
2018-02-22T14:27:20.042Z,22.10
2018-02-22T14:29:48.315Z,19.70
2018-02-22T14:32:17.349Z,17.40
2018-02-22T14:34:45.507Z,16.10
2018-02-22T14:37:13.647Z,14.60
2018-02-22T14:39:42.092Z,13.80
2018-02-22T14:42:10.782Z,12.50
2018-02-22T14:44:39.430Z,11.00
2018-02-22T14:47:07.862Z,10.50
2018-02-22T14:49:36.798Z,10.30
2018-02-22T14:52:04.966Z,9.50
2018-02-22T14:54:33.164Z,9.50
2018-02-22T14:57:01.331Z,9.00
2018-02-22T14:59:29.496Z,9.10
2018-02-22T15:01:57.686Z,8.20
2018-02-22T15:04:25.826Z,7.70
2018-02-22T15:06:54.068Z,7.50
2018-02-22T15:09:22.213Z,7.40
2018-02-22T15:11:50.389Z,6.80
2018-02-22T15:14:18.533Z,7.00
2018-02-22T15:16:46.669Z,7.20
2018-02-22T15:19:14.897Z,6.70
2018-02-22T15:21:43.431Z,6.90
2018-02-22T15:24:12.541Z,7.00
2018-02-22T15:26:41.502Z,6.60
2018-02-22T15:29:10.418Z,6.70
2018-02-22T15:31:39.379Z,7.10
2018-02-22T15:34:07.527Z,7.30
2018-02-22T15:36:35.706Z,7.00
2018-02-22T15:39:03.850Z,6.80
2018-02-22T15:41:31.999Z,6.80
2018-02-22T15:51:00.275Z,5.60
2018-02-22T15:53:28.438Z,5.90
2018-02-22T15:55:56.574Z,5.70
2018-02-22T15:58:24.799Z,6.20
2018-02-22T16:00:53.046Z,6.10
2018-02-22T16:03:21.195Z,6.30
2018-02-22T16:05:49.382Z,6.30
2018-02-22T16:08:17.517Z,6.00
2018-02-22T16:10:45.754Z,5.90
2018-02-22T16:13:14.101Z,5.70
2018-02-22T16:15:42.962Z,5.60
2018-02-22T16:18:11.952Z,5.60
2018-02-22T16:20:40.118Z,5.40
2018-02-22T16:23:08.278Z,5.40
2018-02-22T16:25:36.406Z,4.90
2018-02-22T16:28:04.587Z,4.80
2018-02-22T16:30:32.734Z,4.80
2018-02-22T16:33:01.694Z,4.90
2018-02-22T16:35:29.859Z,4.90
2018-02-22T16:37:58.118Z,4.80
2018-02-22T16:40:26.345Z,4.90
2018-02-22T16:42:55.246Z,4.80
2018-02-22T16:45:23.442Z,4.90
2018-02-22T16:47:51.626Z,4.60
2018-02-22T16:50:19.769Z,4.80
2018-02-22T16:52:48.231Z,4.90
2018-02-22T16:55:16.541Z,4.80
2018-02-22T16:57:45.142Z,4.70
2018-02-22T17:00:13.316Z,4.90
2018-02-22T17:02:41.557Z,5.20
2018-02-22T17:05:10.734Z,5.30
2018-02-22T17:07:39.108Z,5.00
2018-02-22T17:10:08.146Z,5.00
2018-02-22T17:12:36.448Z,4.80
2018-02-22T17:15:04.585Z,4.80
2018-02-22T17:17:45.761Z,5.00
2018-02-22T17:20:13.909Z,4.90
2018-02-22T17:22:42.081Z,4.70
2018-02-22T17:25:10.230Z,4.10
2018-02-22T17:27:44.014Z,4.70
2018-02-22T17:30:18.050Z,4.50
2018-02-22T17:32:46.973Z,4.60
2018-02-22T17:35:16.865Z,4.80
2018-02-22T17:37:46.558Z,4.50
2018-02-22T17:40:14.833Z,4.60
2018-02-22T17:42:58.753Z,4.70
2018-02-22T17:45:26.911Z,4.60
2018-02-22T17:47:55.072Z,4.60
2018-02-22T17:50:23.254Z,4.60
2018-02-22T17:52:51.402Z,4.30
2018-02-22T17:55:19.573Z,3.90
2018-02-22T17:57:47.734Z,4.30
2018-02-22T18:00:15.875Z,4.30
2018-02-22T18:02:44.525Z,3.90
2018-02-22T18:05:12.678Z,3.70
2018-02-22T18:07:40.872Z,3.60
2018-02-22T18:10:09.033Z,3.70
2018-02-22T18:12:37.250Z,3.70
2018-02-22T18:15:05.389Z,3.40
2018-02-22T18:17:33.991Z,3.70
2018-02-22T18:20:02.594Z,3.30
2018-02-22T18:22:30.758Z,3.40
2018-02-22T18:24:58.887Z,3.10
2018-02-22T18:27:27.048Z,3.30
2018-02-22T18:29:55.227Z,3.40
2018-02-22T18:32:23.421Z,3.40
2018-02-22T18:34:51.559Z,3.20
2018-02-22T18:37:25.226Z,3.20
2018-02-22T18:39:53.382Z,3.60
2018-02-22T18:42:21.549Z,3.50
2018-02-22T18:44:55.181Z,3.80
2018-02-22T18:47:23.326Z,3.80
2018-02-22T18:49:51.489Z,4.20
2018-02-22T18:52:19.639Z,4.30
2018-02-22T18:54:47.889Z,3.70
2018-02-22T18:57:16.005Z,3.90
2018-02-22T18:59:44.734Z,3.80
2018-02-22T19:02:13.658Z,4.20
2018-02-22T19:04:41.790Z,4.20
2018-02-22T19:07:09.946Z,4.30
2018-02-22T19:09:38.086Z,4.10
2018-02-22T19:12:07.195Z,4.00
2018-02-22T19:14:35.331Z,3.70
2018-02-22T19:20:02.139Z,3.60
2018-02-22T19:22:30.334Z,3.20
2018-02-22T19:24:58.561Z,3.40
2018-02-22T19:27:26.842Z,3.40
2018-02-22T19:29:54.996Z,3.60
2018-02-22T19:32:23.129Z,3.70
2018-02-22T19:34:51.308Z,3.50
2018-02-22T19:37:20.214Z,3.30
2018-02-22T19:39:49.234Z,3.40
2018-02-22T19:42:17.412Z,3.40
2018-02-22T19:44:45.547Z,3.20
2018-02-22T19:47:15.031Z,3.50
2018-02-22T19:49:43.197Z,3.20
2018-02-22T19:52:11.329Z,3.40
2018-02-22T19:54:39.498Z,3.20
2018-02-22T19:57:08.055Z,3.00
2018-02-22T19:59:36.968Z,3.20
2018-02-22T20:02:05.108Z,3.30
2018-02-22T20:04:34.053Z,3.30
2018-02-22T20:07:02.200Z,3.30
2018-02-22T20:09:30.385Z,3.30
2018-02-22T20:11:58.543Z,3.40
2018-02-22T20:14:26.690Z,3.20
2018-02-22T20:16:55.628Z,3.30
2018-02-22T20:19:23.762Z,3.40
2018-02-22T20:21:52.668Z,3.50
2018-02-22T20:24:20.821Z,3.60
2018-02-22T20:26:49.743Z,3.30
2018-02-22T20:29:17.979Z,3.50
2018-02-22T20:31:46.885Z,3.40
2018-02-22T20:34:15.027Z,3.40
2018-02-22T20:36:43.194Z,3.10
2018-02-22T20:39:11.334Z,3.40
2018-02-22T20:41:39.495Z,3.30
2018-02-22T20:44:07.643Z,3.40
2018-02-22T20:46:35.787Z,3.40
2018-02-22T20:49:04.017Z,3.70
2018-02-22T20:51:36.741Z,3.70
2018-02-22T20:54:04.896Z,3.80
2018-02-22T20:56:33.025Z,3.80
2018-02-22T20:59:01.191Z,3.70
2018-02-22T21:01:29.326Z,3.90
2018-02-22T21:03:57.476Z,3.80
2018-02-22T21:06:25.646Z,3.90
2018-02-22T21:08:53.792Z,3.90
2018-02-22T21:11:21.931Z,3.80
2018-02-22T21:13:50.962Z,3.90
2018-02-22T21:16:19.125Z,3.40
2018-02-22T21:18:47.498Z,3.70
2018-02-22T21:21:16.559Z,3.80
2018-02-22T21:23:44.735Z,3.80
2018-02-22T21:26:13.247Z,3.80
2018-02-22T21:28:41.401Z,3.90
2018-02-22T21:31:10.334Z,3.50
2018-02-22T21:33:38.509Z,3.60
2018-02-22T21:36:06.647Z,3.60
2018-02-22T21:38:34.879Z,3.60
2018-02-22T21:41:03.120Z,3.60
2018-02-22T21:43:31.346Z,4.00
2018-02-22T21:45:59.475Z,3.80
2018-02-22T21:48:27.625Z,3.40
2018-02-22T21:50:55.911Z,3.80
2018-02-22T21:53:24.090Z,3.80
2018-02-22T21:55:52.225Z,4.00
2018-02-22T21:58:21.171Z,3.80
2018-02-22T22:00:49.319Z,3.70
2018-02-22T22:03:17.498Z,3.80
2018-02-22T22:05:45.670Z,3.30
2018-02-22T22:08:13.796Z,3.60
2018-02-22T22:10:42.962Z,3.70
2018-02-22T22:13:11.726Z,3.80
2018-02-22T22:15:39.858Z,3.40
2018-02-22T22:18:08.786Z,3.40
2018-02-22T22:20:36.941Z,3.60
2018-02-22T22:23:05.106Z,3.70
2018-02-22T22:25:33.279Z,3.80
2018-02-22T22:28:01.428Z,3.80
2018-02-22T22:30:30.370Z,3.50
2018-02-22T22:32:58.501Z,3.70
2018-02-22T22:35:27.407Z,3.40
2018-02-22T22:37:55.643Z,3.70
2018-02-22T22:40:23.774Z,3.60
2018-02-22T22:42:51.917Z,3.10
2018-02-22T22:45:20.855Z,3.30
2018-02-22T22:47:49.067Z,3.70
2018-02-22T22:50:17.978Z,3.30
2018-02-22T22:52:46.206Z,2.80
2018-02-22T22:55:14.350Z,2.80
2018-02-22T22:57:42.485Z,2.90
2018-02-22T23:00:11.427Z,3.10
2018-02-22T23:02:39.583Z,3.20
2018-02-22T23:05:07.718Z,3.60
2018-02-22T23:07:36.650Z,3.30
2018-02-22T23:10:04.821Z,3.20
2018-02-22T23:12:32.951Z,3.60
2018-02-22T23:15:02.600Z,3.10
2018-02-22T23:17:30.742Z,2.50
2018-02-22T23:19:59.647Z,2.50
2018-02-22T23:22:27.818Z,2.60
2018-02-22T23:24:56.015Z,2.80
2018-02-22T23:27:24.146Z,2.70
2018-02-22T23:29:53.083Z,2.90
2018-02-22T23:32:21.226Z,2.60
2018-02-22T23:34:49.357Z,2.20
2018-02-22T23:37:17.510Z,2.20
2018-02-22T23:39:45.645Z,2.20
2018-02-22T23:42:25.561Z,2.10
2018-02-22T23:44:54.462Z,1.90
2018-02-22T23:47:23.766Z,1.70
2018-02-22T23:49:52.771Z,1.80
2018-02-22T23:52:20.922Z,1.70
2018-02-22T23:54:49.834Z,1.20
2018-02-22T23:57:18.014Z,1.40
2018-02-22T23:59:46.150Z,1.40
